Latest Weather Observations for Hartz Mountains

IDT60801

Issued at 2:02 am EST Monday 25 July 2016 (issued every 30 minutes, with the page automatically refreshed every 10 minutes)

About weather observations | Map of weather stations | Latest weather observations for TAS | Other Formats
Station Details ID: 094191 Name: HARTZ MOUNTAIN (KEOGHS PIMPLE) Lat: -43.20 Lon: 146.77 Height: 831.0 m
Data from the previous 72 hours. | See also: Recent months at Hartz Mountains
Date/Time
EST
Temp
°C
App
Temp
°C
Dew
Point
°C
Rel
Hum
%
Delta-T
°C
Wind Press
QNH
hPa
Press
MSL
hPa
Rain since
9am
mm
Dir  Spd
km/h
Gust
km/h
Spd
kts
Gust
kts
25/02:00am 0.9 -5.9 0.8 99 0.0 NW 26 35 14 19 - - 8.0
25/01:30am 0.9 -5.9 0.8 99 0.0 WNW 26 44 14 24 - - 8.0
25/01:00am 0.8 -5.6 0.7 99 0.0 WNW 24 35 13 19 - - 8.0
25/12:30am 0.7 -5.0 0.4 98 0.1 WNW 20 30 11 16 - - 8.0
25/12:00am 0.6 -5.9 0.3 98 0.1 WNW 24 32 13 17 - - 8.0
 
Date/Time
EST
Temp
°C
App
Temp
°C
Dew
Point
°C
Rel
Hum
%
Delta-T
°C
Wind Press
QNH
hPa
Press
MSL
hPa
Rain since
9am
mm
Dir  Spd
km/h
Gust
km/h
Spd
kts
Gust
kts
24/11:30pm 0.6 -7.0 0.3 98 0.1 WNW 30 35 16 19 - - 8.0
24/11:00pm 0.3 -7.0 0.0 98 0.1 W 28 33 15 18 - - 8.0
24/10:30pm 0.4 -6.5 0.1 98 0.1 W 26 37 14 20 - - 8.0
24/10:00pm 0.3 -7.0 0.0 98 0.1 W 28 37 15 20 - - 8.0
24/09:30pm 0.3 -7.8 0.0 98 0.1 W 32 39 17 21 - - 8.0
24/09:00pm 0.1 -7.2 -0.2 98 0.1 WNW 28 35 15 19 - - 8.0
24/08:30pm 0.2 -6.3 0.1 99 0.0 WNW 24 32 13 17 - - 7.8
24/08:00pm 0.3 -6.2 0.3 100 0.0 WNW 24 30 13 16 - - 7.8
24/07:30pm 0.0 -6.9 0.0 100 0.0 WNW 26 35 14 19 - - 7.8
24/07:00pm 0.1 -5.7 0.1 100 0.0 NW 20 28 11 15 - - 7.8
24/06:30pm 0.1 -6.4 0.1 100 0.0 WNW 24 32 13 17 - - 7.8
24/06:00pm 0.1 -5.5 0.1 100 0.0 NW 19 24 10 13 - - 7.8
24/05:30pm 0.2 -5.6 0.2 100 0.0 NW 20 24 11 13 - - 7.8
24/05:00pm 0.2 -5.4 0.1 99 0.0 NW 19 24 10 13 - - 7.8
24/04:30pm 0.4 -5.2 0.1 98 0.1 NW 19 26 10 14 - - 7.8
24/04:00pm 0.4 -5.4 0.1 98 0.1 NW 20 26 11 14 - - 7.8
24/03:30pm 0.4 -6.9 0.1 98 0.1 NW 28 35 15 19 - - 7.6
24/03:00pm 0.5 -5.3 0.1 97 0.2 WNW 20 28 11 15 - - 7.2
24/02:30pm 0.5 -6.0 0.1 97 0.2 WNW 24 32 13 17 - - 7.0
24/02:00pm 0.5 -6.0 0.1 97 0.2 WNW 24 35 13 19 - - 6.4
24/01:30pm 0.5 -5.6 0.2 98 0.1 NW 22 30 12 16 - - 5.8
24/01:00pm 0.4 -4.8 0.1 98 0.1 NW 17 22 9 12 - - 4.8
24/12:30pm 0.2 -7.5 -0.1 98 0.1 W 30 43 16 23 - - 3.6
24/12:00pm 0.0 -8.1 -0.1 99 0.0 WNW 32 44 17 24 - - 2.6
24/11:30am -0.1 -8.4 -0.4 98 0.1 W 33 46 18 25 - - 1.4
24/11:00am 0.1 -6.8 0.0 99 0.0 WNW 26 43 14 23 - - 0.0
24/10:30am -0.4 -9.9 -0.5 99 0.0 WSW 39 61 21 33 - - 0.0
24/10:24am -0.4 -10.6 -0.5 99 0.0 WSW 43 61 23 33 - - 0.0
24/10:00am -0.6 -11.4 -0.7 99 0.0 WSW 46 63 25 34 - - 0.0
24/09:33am -0.7 -9.1 -0.7 100 0.0 W 33 56 18 30 - - 0.0
24/09:30am -0.7 -8.9 -0.7 100 0.0 W 32 48 17 26 - - 0.0
24/09:10am -0.8 -9.0 -0.8 100 0.0 W 32 50 17 27 - - 0.0
24/09:00am -0.9 -9.7 -1.0 99 0.0 W 35 50 19 27 - - 0.0
24/08:30am -1.1 -8.6 -1.2 99 0.0 W 28 41 15 22 - - 0.0
24/08:00am -1.0 -8.8 -1.1 99 0.0 W 30 50 16 27 - - 0.0
24/07:56am -1.0 -8.5 -1.1 99 0.0 W 28 50 15 27 - - 0.0
24/07:30am -1.2 -8.3 -1.2 100 0.0 W 26 54 14 29 - - 0.0
24/07:00am -1.3 -9.2 -1.4 99 0.0 WSW 30 48 16 26 - - 0.0
24/06:30am -1.3 -9.7 -1.4 99 0.0 S 33 54 18 29 - - 0.0
24/06:07am -1.3 -10.1 -1.3 100 0.0 SE 35 54 19 29 - - 0.0
24/06:00am -1.2 -10.8 -1.2 100 0.0 SE 39 54 21 29 - - 0.0
24/05:53am -1.3 -9.2 -1.3 100 0.0 SE 30 54 16 29 - - 0.0
24/05:30am -1.5 -9.0 -1.6 99 0.0 ESE 28 44 15 24 - - 0.0
24/05:00am -1.7 -11.7 -1.8 99 0.0 ESE 41 65 22 35 - - 0.0
24/04:30am -1.6 -10.1 -1.7 99 0.0 ESE 33 52 18 28 - - 0.0
24/04:00am -1.6 -12.2 -1.7 99 0.0 ESE 44 67 24 36 - - 0.0
24/03:30am -1.6 -10.5 -1.7 99 0.0 ESE 35 54 19 29 - - 0.0
24/03:00am -1.8 -13.2 -1.8 100 0.0 ESE 48 69 26 37 - - 0.0
24/02:56am -1.8 -12.4 -1.9 99 0.0 ESE 44 69 24 37 - - 0.0
24/02:31am -1.9 -10.2 -2.0 99 -0.1 ESE 32 50 17 27 - - 0.0
24/02:30am -1.9 -9.9 -2.0 99 -0.1 ESE 30 44 16 24 - - 0.0
24/02:03am -2.0 -10.5 -2.1 99 -0.1 ESE 33 61 18 33 - - 0.0
24/02:00am -2.0 -10.5 -2.1 99 -0.1 ESE 33 50 18 27 - - 0.0
24/01:37am -1.8 -11.8 -1.9 99 0.0 SE 41 67 22 36 - - 0.0
24/01:30am -2.0 -11.7 -2.1 99 -0.1 SE 39 54 21 29 - - 0.0
24/01:11am -2.0 -11.3 -2.3 98 0.0 SE 37 59 20 32 - - 0.0
24/01:10am -2.0 -10.9 -2.3 98 0.0 ESE 35 54 19 29 - - 0.0
24/01:07am -2.0 -10.9 -2.3 98 0.0 E 35 54 19 29 - - 0.0
24/01:06am -2.0 -10.9 -2.3 98 0.0 E 35 54 19 29 - - 0.0
24/01:00am -2.1 -10.7 -2.4 98 0.0 ENE 33 44 18 24 - - 0.0
24/12:43am -2.1 -11.1 -2.5 97 0.0 ENE 35 54 19 29 - - 0.0
24/12:30am -2.2 -11.2 -2.6 97 0.0 ENE 35 52 19 28 - - 0.0
24/12:20am -2.2 -11.2 -2.6 97 0.0 ENE 35 54 19 29 - - 0.0
24/12:00am -2.4 -12.9 -2.5 99 -0.1 NE 43 54 23 29 - - 0.0
 
Date/Time
EST
Temp
°C
App
Temp
°C
Dew
Point
°C
Rel
Hum
%
Delta-T
°C
Wind Press
QNH
hPa
Press
MSL
hPa
Rain since
9am
mm
Dir  Spd
km/h
Gust
km/h
Spd
kts
Gust
kts
23/11:30pm -2.5 -13.2 -2.8 98 0.0 ENE 44 56 24 30 - - 0.0
23/11:17pm -2.2 -12.4 -2.9 95 0.1 E 41 63 22 34 - - 0.0
23/11:13pm -2.0 -12.1 -2.7 95 0.2 E 41 63 22 34 - - 0.0
23/11:06pm -2.1 -13.2 -2.9 94 0.2 ENE 46 65 25 35 - - 0.0
23/11:00pm -1.9 -13.4 -2.9 93 0.3 NE 48 63 26 34 - - 0.0
23/10:30pm -2.3 -13.4 -3.0 95 0.1 NE 46 65 25 35 - - 0.0
23/10:28pm -2.3 -13.4 -3.0 95 0.1 NE 46 65 25 35 - - 0.0
23/10:00pm -2.8 -14.7 -3.1 98 0.0 NE 50 67 27 36 - - 0.0
23/09:30pm -2.7 -14.6 -3.0 98 0.0 NE 50 74 27 40 - - 0.0
23/09:11pm -2.6 -13.8 -3.3 95 0.1 NE 46 67 25 36 - - 0.0
23/09:00pm -2.6 -13.4 -3.4 94 0.2 NE 44 59 24 32 - - 0.0
23/08:47pm -2.6 -12.4 -3.1 96 0.1 NE 39 61 21 33 - - 0.0
23/08:30pm -2.4 -12.2 -2.9 96 0.1 NE 39 48 21 26 - - 0.0
23/08:09pm -2.5 -11.0 -2.9 97 0.0 NE 32 57 17 31 - - 0.0
23/08:00pm -2.7 -10.0 -3.1 97 0.0 NE 26 43 14 23 - - 0.0
23/07:30pm -2.8 -13.4 -3.3 96 0.0 NE 43 65 23 35 - - 0.0
23/07:00pm -2.8 -13.1 -3.8 93 0.2 NE 41 61 22 33 - - 0.0
23/06:39pm -3.0 -14.6 -3.5 96 0.0 NE 48 93 26 50 - - 0.0
23/06:30pm -2.4 -13.5 -2.9 96 0.1 NE 46 69 25 37 - - 0.0
23/06:00pm -2.6 -14.2 -3.4 94 0.2 NE 48 98 26 53 - - 0.0
23/05:59pm -2.6 -14.2 -3.4 94 0.2 NE 48 98 26 53 - - 0.0
23/05:57pm -2.4 -13.2 -3.1 95 0.1 NE 44 98 24 53 - - 0.0
23/05:56pm -2.5 -12.7 -3.0 96 0.1 NE 41 87 22 47 - - 0.0
23/05:30pm -2.8 -12.6 -3.3 96 0.0 NE 39 65 21 35 - - 0.0
23/05:00pm -2.9 -12.3 -3.3 97 0.0 NE 37 65 20 35 - - 0.0
23/04:30pm -3.0 -15.3 -3.1 99 -0.1 NE 52 85 28 46 - - 0.0
23/04:25pm -3.0 -14.9 -3.3 98 0.0 NE 50 85 27 46 - - 0.0
23/04:00pm -2.7 -13.3 -3.0 98 0.0 NE 43 70 23 38 - - 0.0
23/03:38pm -3.1 -16.7 -3.4 98 0.0 ENE 59 111 32 60 - - 0.0
23/03:33pm -3.2 -15.2 -3.6 97 0.0 ENE 50 111 27 60 - - 0.0
23/03:32pm -3.0 -14.2 -3.4 97 0.0 ENE 46 87 25 47 - - 0.0
23/03:31pm -2.9 -13.7 -3.2 98 0.0 ENE 44 87 24 47 - - 0.0
23/03:30pm -2.7 -13.3 -3.0 98 0.0 ENE 43 65 23 35 - - 0.0
23/03:00pm -2.6 -13.1 -2.9 98 0.0 ENE 43 74 23 40 - - 0.0
23/02:30pm -2.7 -13.8 -2.8 99 -0.1 E 46 76 25 41 - - 0.0
23/02:00pm -2.3 -13.8 -2.6 98 0.0 ENE 48 70 26 38 - - 0.0
23/01:32pm -2.5 -13.0 -2.8 98 0.0 ENE 43 61 23 33 - - 0.0
23/01:30pm -2.5 -13.0 -2.8 98 0.0 ENE 43 59 23 32 - - 0.0
23/01:00pm -2.7 -13.8 -2.8 99 -0.1 NNE 46 69 25 37 - - 0.0
23/12:30pm -3.2 -14.4 -3.5 98 0.0 NE 46 70 25 38 - - 0.0
23/12:20pm -3.2 -13.8 -3.6 97 0.0 NE 43 87 23 47 - - 0.0
23/12:00pm -2.9 -13.5 -3.0 99 -0.1 NE 43 69 23 37 - - 0.0
23/11:50am -2.8 -13.0 -2.9 99 -0.1 NE 41 59 22 32 - - 0.0
23/11:43am -2.9 -13.5 -3.0 99 -0.1 ENE 43 59 23 32 - - 0.0
23/11:30am -3.0 -11.1 -3.3 98 0.0 E 30 56 16 30 - - 0.0
23/11:10am -2.7 -10.4 -3.0 98 0.0 E 28 50 15 27 - - 0.0
23/11:00am -2.6 -11.1 -2.9 98 0.0 ENE 32 46 17 25 - - 0.0
23/10:30am -3.0 -13.8 -3.3 98 0.0 ENE 44 67 24 36 - - 0.0
23/10:00am -2.7 -13.2 -2.8 99 -0.1 ENE 43 63 23 34 - - 0.0
23/09:30am -2.9 -11.4 -3.0 99 -0.1 ENE 32 56 17 30 - - 0.0
23/09:00am -3.0 -11.7 -3.1 99 -0.1 ENE 33 56 18 30 - - 6.0
23/08:57am -3.0 -11.1 -3.1 99 -0.1 ENE 30 56 16 30 - - 6.0
23/08:30am -3.0 -11.5 -3.1 99 -0.1 ENE 32 46 17 25 - - 6.0
23/08:22am -3.1 -12.9 -3.2 99 -0.1 NE 39 57 21 31 - - 6.0
23/08:05am -3.0 -14.5 -3.1 99 -0.1 NE 48 69 26 37 - - 6.0
23/08:00am -2.7 -13.2 -2.8 99 -0.1 NE 43 65 23 35 - - 6.0
23/07:30am -2.7 -10.4 -2.8 99 -0.1 NE 28 48 15 26 - - 6.0
23/07:13am -2.7 -11.3 -2.8 99 -0.1 ESE 33 56 18 30 - - 6.0
23/07:06am -2.7 -11.7 -2.8 99 -0.1 WSW 35 50 19 27 - - 6.0
23/07:00am -2.5 -11.9 -2.6 99 -0.1 WSW 37 54 20 29 - - 6.0
23/06:30am -2.2 -11.9 -2.3 99 -0.1 WSW 39 59 21 32 - - 6.0
23/06:07am -2.1 -10.5 -2.2 99 -0.1 W 32 65 17 35 - - 6.0
23/06:03am -1.8 -9.0 -1.8 100 0.0 W 26 48 14 26 - - 6.0
23/06:00am -1.7 -8.1 -1.7 100 0.0 W 22 39 12 21 - - 6.0
23/05:30am -1.6 -8.0 -1.6 100 0.0 W 22 35 12 19 - - 6.0
23/05:00am -1.5 -8.3 -1.5 100 0.0 W 24 52 13 28 - - 6.0
23/04:30am -1.3 -9.5 -1.3 100 0.0 W 32 54 17 29 - - 6.0
23/04:21am -1.3 -8.8 -1.3 100 0.0 W 28 48 15 26 - - 6.0
23/04:00am -1.2 -8.3 -1.2 100 0.0 W 26 41 14 22 - - 6.0
23/03:30am -1.0 -9.2 -1.0 100 0.0 WNW 32 46 17 25 - - 6.0
23/03:00am -0.8 -8.2 -0.8 100 0.0 WNW 28 57 15 31 - - 6.0
23/02:56am -0.7 -8.5 -0.7 100 0.0 WNW 30 52 16 28 - - 6.0
23/02:30am -0.7 -7.3 -0.7 100 0.0 WNW 24 39 13 21 - - 6.0
23/02:00am -0.6 -7.2 -0.6 100 0.0 NW 24 33 13 18 - - 6.0
23/01:30am -0.5 -8.3 -0.5 100 0.0 WNW 30 43 16 23 - - 6.0
23/01:12am -0.5 -7.9 -0.5 100 0.0 WNW 28 52 15 28 - - 6.0
23/01:00am -0.6 -6.8 -0.6 100 0.0 WNW 22 37 12 20 - - 6.0
23/12:39am -0.6 -8.0 -0.6 100 0.0 WNW 28 46 15 25 - - 6.0
23/12:30am -0.7 -8.1 -0.8 99 0.0 W 28 44 15 24 - - 6.0
23/12:01am -0.6 -8.0 -0.7 99 0.0 W 28 48 15 26 - - 6.0
23/12:00am -0.5 -7.5 -0.6 99 0.0 W 26 41 14 22 - - 6.0
 
Date/Time
EST
Temp
°C
App
Temp
°C
Dew
Point
°C
Rel
Hum
%
Delta-T
°C
Wind Press
QNH
hPa
Press
MSL
hPa
Rain since
9am
mm
Dir  Spd
km/h
Gust
km/h
Spd
kts
Gust
kts
22/11:30pm -0.8 -7.8 -0.8 100 0.0 W 26 43 14 23 - - 6.0
22/11:00pm -0.4 -8.1 -0.4 100 0.0 W 30 50 16 27 - - 6.0
22/10:54pm -0.4 -7.8 -0.4 100 0.0 W 28 50 15 27 - - 6.0
22/10:30pm -0.4 -7.4 -0.4 100 0.0 WNW 26 39 14 21 - - 6.0
22/10:00pm -0.3 -6.9 -0.4 99 0.0 WNW 24 33 13 18 - - 6.0
22/09:39pm -0.4 -8.2 -0.5 99 0.0 WNW 30 48 16 26 - - 6.0
22/09:30pm -0.2 -6.8 -0.3 99 0.0 WNW 24 35 13 19 - - 6.0
22/09:00pm -0.2 -7.2 -0.5 98 0.1 WNW 26 41 14 22 - - 6.0
22/08:30pm 0.0 -5.8 -0.3 98 0.1 W 20 32 11 17 - - 6.0
22/08:01pm 0.1 -8.0 -0.2 98 0.1 WSW 32 50 17 27 - - 6.0
22/08:00pm 0.1 -8.2 -0.2 98 0.1 WSW 33 50 18 27 - - 6.0
22/07:30pm 0.1 -7.6 -0.2 98 0.1 W 30 56 16 30 - - 5.8
22/07:00pm 0.2 -7.9 -0.1 98 0.1 W 32 80 17 43 - - 5.8
22/06:59pm 0.1 -7.6 -0.2 98 0.1 W 30 80 16 43 - - 5.8
22/06:49pm 0.4 -7.6 0.1 98 0.1 W 32 54 17 29 - - 5.8
22/06:46pm 0.6 -8.0 0.3 98 0.1 W 35 59 19 32 - - 5.8
22/06:30pm 0.7 -7.3 0.4 98 0.1 W 32 74 17 40 - - 5.8
22/06:06pm 0.6 -7.4 0.3 98 0.1 WSW 32 69 17 37 - - 5.4
22/06:00pm 0.8 -7.2 0.5 98 0.1 WSW 32 46 17 25 - - 5.4
22/05:30pm 1.3 -7.9 1.2 99 0.0 W 39 78 21 42 - - 5.4
22/05:29pm 1.4 -7.8 1.3 99 0.0 W 39 78 21 42 - - 5.4
22/05:25pm 1.3 -7.5 1.2 99 0.0 W 37 69 20 37 - - 5.2
22/05:18pm 1.3 -6.2 1.2 99 0.0 W 30 57 16 31 - - 5.2
22/05:17pm 1.2 -6.3 1.1 99 0.0 W 30 48 16 26 - - 5.2
22/05:00pm 1.4 -7.0 1.3 99 0.0 W 35 74 19 40 - - 5.0
22/04:59pm 1.4 -7.0 1.3 99 0.0 W 35 74 19 40 - - 5.0
22/04:58pm 1.4 -7.0 1.3 99 0.0 W 35 69 19 37 - - 5.0
22/04:50pm 1.3 -8.9 1.2 99 0.0 W 44 82 24 44 - - 5.0
22/04:30pm 1.1 -8.9 1.0 99 0.0 WNW 43 72 23 39 - - 5.0
22/04:23pm 1.2 -10.1 0.9 98 0.1 WNW 50 107 27 58 - - 4.8
22/04:21pm 1.1 -11.0 0.8 98 0.1 WNW 54 107 29 58 - - 4.6
22/04:15pm 1.6 -11.0 1.2 97 0.2 WNW 57 107 31 58 - - 4.4
22/04:10pm 2.4 -8.8 2.1 98 0.1 WNW 50 83 27 45 - - 4.4
22/04:00pm 2.8 -5.8 2.7 99 0.0 WNW 37 67 20 36 - - 4.4
22/03:30pm 3.0 -6.0 2.7 98 0.1 W 39 70 21 38 - - 4.2
22/03:21pm 3.1 -4.7 2.8 98 0.1 W 33 63 18 34 - - 4.0
22/03:18pm 3.2 -4.6 2.9 98 0.1 W 33 63 18 34 - - 4.0
22/03:00pm 3.0 -6.7 2.6 97 0.2 WNW 43 70 23 38 - - 3.8
22/02:30pm 4.0 -5.7 3.7 98 0.1 WNW 44 74 24 40 - - 3.4
22/02:00pm 3.9 -6.2 3.6 98 0.1 WNW 46 72 25 39 - - 3.0
22/01:30pm 3.6 -6.0 3.3 98 0.1 NW 43 63 23 34 - - 3.0
22/01:00pm 4.0 -5.8 3.6 97 0.2 NW 44 72 24 39 - - 2.4
22/12:30pm 4.8 -2.7 4.2 96 0.3 NW 33 56 18 30 - - 1.0
22/12:00pm 5.4 -2.5 4.2 92 0.5 NW 35 63 19 34 - - 1.0
22/11:37am 6.3 -1.4 5.4 94 0.4 WNW 35 54 19 29 - - 1.0
22/11:30am 5.9 -2.6 5.3 96 0.3 WNW 39 54 21 29 - - 1.0
22/11:00am 5.1 -4.3 4.5 96 0.3 NW 43 61 23 33 - - 0.6
22/10:30am 5.3 -5.4 4.6 95 0.3 WNW 50 76 27 41 - - 0.2
22/10:00am 6.2 -3.7 4.7 90 0.7 WNW 46 65 25 35 - - 0.0
22/09:30am 5.9 -2.7 4.5 91 0.6 WNW 39 59 21 32 - - 0.0
22/09:00am 5.9 -5.2 4.5 91 0.6 WNW 52 74 28 40 - - 12.4
22/08:30am 6.0 -3.9 5.0 93 0.5 WNW 46 74 25 40 - - 12.4
22/08:19am 6.3 -4.0 4.9 91 0.6 WNW 48 76 26 41 - - 12.4
22/08:18am 6.3 -4.3 4.9 91 0.6 WNW 50 80 27 43 - - 12.4
22/08:00am 6.5 -6.2 5.1 91 0.6 WNW 61 95 33 51 - - 12.4
22/07:30am 6.7 -5.9 5.7 93 0.5 WNW 61 96 33 52 - - 12.4
22/07:00am 7.1 -3.5 6.7 97 0.2 WNW 52 102 28 55 - - 12.4
22/06:55am 7.2 -2.7 6.8 97 0.2 NW 48 102 26 55 - - 12.4
22/06:30am 7.3 -2.5 7.0 98 0.1 WNW 48 76 26 41 - - 12.2
22/06:02am 7.2 -2.2 7.1 99 0.0 WNW 46 96 25 52 - - 12.0
22/06:00am 7.2 -1.6 7.1 99 0.0 WNW 43 72 23 39 - - 12.0
22/05:59am 7.2 -0.9 7.1 99 0.0 WNW 39 72 21 39 - - 12.0
22/05:46am 7.0 0.0 6.9 99 0.0 NW 33 48 18 26 - - 11.2
22/05:45am 7.0 -0.4 6.9 99 0.0 NW 35 48 19 26 - - 11.2
22/05:30am 7.0 -0.7 6.9 99 0.0 NNW 37 65 20 35 - - 10.8
22/05:14am 6.6 0.1 6.5 99 0.0 NNW 30 48 16 26 - - 10.4
22/05:00am 6.4 -0.7 6.3 99 0.0 NNW 33 46 18 25 - - 9.0
22/04:44am 6.0 -0.3 5.9 99 0.0 NNW 28 46 15 25 - - 7.8
22/04:30am 5.6 0.0 5.5 99 0.0 NNW 24 41 13 22 - - 6.6
22/04:03am 5.4 -1.0 5.3 99 0.0 N 28 54 15 29 - - 4.8
22/04:00am 5.3 -0.7 5.2 99 0.0 N 26 54 14 29 - - 4.8
22/03:57am 5.4 -1.0 5.3 99 0.0 N 28 54 15 29 - - 4.8
22/03:30am 5.3 -0.4 5.0 98 0.1 N 24 35 13 19 - - 3.6
22/03:19am 5.3 -1.1 5.0 98 0.1 N 28 46 15 25 - - 3.2
22/03:00am 5.2 -0.5 4.8 97 0.2 N 24 44 13 24 - - 2.2
22/02:30am 5.2 -0.5 4.8 97 0.2 NNW 24 41 13 22 - - 1.2
22/02:02am 5.3 -2.0 4.7 96 0.3 NNW 32 56 17 30 - - 0.8

Other Formats:

Comma delimited format used in spreadsheet applications
http://www.bom.gov.au/fwo/IDT60801/IDT60801.94977.axf

JavaScript Object Notation format (JSON) in row-major order
http://www.bom.gov.au/fwo/IDT60801/IDT60801.94977.json